sensor_id;sensor_type;location;lat;lon;timestamp;P1;durP1;ratioP1;P2;durP2;ratioP2
54269;SDS011;40181;51.560;13.000;2023-06-22T00:01:36;3.95;;;3.28;;
54269;SDS011;40181;51.560;13.000;2023-06-22T00:04:05;4.93;;;3.95;;
54269;SDS011;40181;51.560;13.000;2023-06-22T00:06:34;4.57;;;2.97;;
54269;SDS011;40181;51.560;13.000;2023-06-22T00:09:03;5.00;;;3.30;;
54269;SDS011;40181;51.560;13.000;2023-06-22T00:11:32;3.80;;;3.30;;
54269;SDS011;40181;51.560;13.000;2023-06-22T00:14:02;8.07;;;3.63;;
54269;SDS011;40181;51.560;13.000;2023-06-22T00:16:31;5.82;;;4.30;;
54269;SDS011;40181;51.560;13.000;2023-06-22T00:19:03;5.90;;;3.60;;
54269;SDS011;40181;51.560;13.000;2023-06-22T00:21:32;6.05;;;3.90;;
54269;SDS011;40181;51.560;13.000;2023-06-22T00:24:02;6.38;;;3.33;;
54269;SDS011;40181;51.560;13.000;2023-06-22T00:26:32;5.20;;;3.92;;
54269;SDS011;40181;51.560;13.000;2023-06-22T00:29:01;5.07;;;3.70;;
54269;SDS011;40181;51.560;13.000;2023-06-22T00:31:30;4.05;;;3.38;;
54269;SDS011;40181;51.560;13.000;2023-06-22T00:33:59;3.60;;;2.97;;
54269;SDS011;40181;51.560;13.000;2023-06-22T00:36:31;5.60;;;3.45;;
54269;SDS011;40181;51.560;13.000;2023-06-22T00:39:00;8.50;;;4.20;;
54269;SDS011;40181;51.560;13.000;2023-06-22T00:41:30;3.88;;;3.20;;
54269;SDS011;40181;51.560;13.000;2023-06-22T00:43:59;5.72;;;4.50;;
54269;SDS011;40181;51.560;13.000;2023-06-22T00:46:29;5.72;;;4.88;;
54269;SDS011;40181;51.560;13.000;2023-06-22T00:48:58;6.13;;;4.00;;
54269;SDS011;40181;51.560;13.000;2023-06-22T00:51:33;6.40;;;4.63;;
54269;SDS011;40181;51.560;13.000;2023-06-22T00:54:10;4.63;;;4.10;;
54269;SDS011;40181;51.560;13.000;2023-06-22T00:56:40;5.55;;;3.72;;
54269;SDS011;40181;51.560;13.000;2023-06-22T00:59:10;4.93;;;4.43;;
54269;SDS011;40181;51.560;13.000;2023-06-22T01:01:42;5.05;;;3.75;;
54269;SDS011;40181;51.560;13.000;2023-06-22T01:04:12;10.43;;;4.53;;
54269;SDS011;40181;51.560;13.000;2023-06-22T01:06:45;7.75;;;3.83;;
54269;SDS011;40181;51.560;13.000;2023-06-22T01:09:32;7.07;;;4.22;;
54269;SDS011;40181;51.560;13.000;2023-06-22T01:12:11;6.60;;;4.28;;
54269;SDS011;40181;51.560;13.000;2023-06-22T01:14:43;5.10;;;4.13;;
54269;SDS011;40181;51.560;13.000;2023-06-22T01:17:20;5.20;;;3.97;;
54269;SDS011;40181;51.560;13.000;2023-06-22T01:19:51;5.05;;;3.60;;
54269;SDS011;40181;51.560;13.000;2023-06-22T01:22:33;3.70;;;3.35;;
54269;SDS011;40181;51.560;13.000;2023-06-22T01:25:19;5.60;;;3.92;;
54269;SDS011;40181;51.560;13.000;2023-06-22T01:27:58;4.55;;;3.50;;
54269;SDS011;40181;51.560;13.000;2023-06-22T01:30:44;6.10;;;4.57;;
54269;SDS011;40181;51.560;13.000;2023-06-22T01:33:14;5.25;;;4.03;;
54269;SDS011;40181;51.560;13.000;2023-06-22T01:35:47;6.75;;;4.28;;
54269;SDS011;40181;51.560;13.000;2023-06-22T01:38:16;4.00;;;3.38;;
54269;SDS011;40181;51.560;13.000;2023-06-22T01:40:47;3.72;;;3.08;;
54269;SDS011;40181;51.560;13.000;2023-06-22T01:43:17;4.13;;;3.70;;
54269;SDS011;40181;51.560;13.000;2023-06-22T01:45:50;4.60;;;3.25;;
54269;SDS011;40181;51.560;13.000;2023-06-22T01:48:20;4.53;;;2.95;;
54269;SDS011;40181;51.560;13.000;2023-06-22T01:50:51;5.63;;;3.47;;
54269;SDS011;40181;51.560;13.000;2023-06-22T01:53:21;3.65;;;3.30;;
54269;SDS011;40181;51.560;13.000;2023-06-22T01:55:50;4.95;;;3.42;;
54269;SDS011;40181;51.560;13.000;2023-06-22T01:58:19;5.70;;;3.53;;
54269;SDS011;40181;51.560;13.000;2023-06-22T02:03:30;4.00;;;2.95;;
54269;SDS011;40181;51.560;13.000;2023-06-22T02:06:03;3.80;;;2.83;;
54269;SDS011;40181;51.560;13.000;2023-06-22T02:08:36;4.60;;;2.67;;
54269;SDS011;40181;51.560;13.000;2023-06-22T02:11:12;4.78;;;3.58;;
54269;SDS011;40181;51.560;13.000;2023-06-22T02:13:43;6.22;;;3.33;;
54269;SDS011;40181;51.560;13.000;2023-06-22T02:16:16;5.18;;;3.72;;
54269;SDS011;40181;51.560;13.000;2023-06-22T02:18:46;4.65;;;3.28;;
54269;SDS011;40181;51.560;13.000;2023-06-22T02:21:16;4.35;;;3.60;;
54269;SDS011;40181;51.560;13.000;2023-06-22T02:23:45;3.70;;;2.70;;
54269;SDS011;40181;51.560;13.000;2023-06-22T02:26:16;5.72;;;2.95;;
54269;SDS011;40181;51.560;13.000;2023-06-22T02:28:45;4.88;;;3.50;;
54269;SDS011;40181;51.560;13.000;2023-06-22T02:31:17;5.50;;;3.65;;
54269;SDS011;40181;51.560;13.000;2023-06-22T02:33:46;7.18;;;3.22;;
54269;SDS011;40181;51.560;13.000;2023-06-22T02:36:16;3.58;;;3.25;;
54269;SDS011;40181;51.560;13.000;2023-06-22T02:38:50;4.65;;;3.22;;
54269;SDS011;40181;51.560;13.000;2023-06-22T02:41:21;5.30;;;3.47;;
54269;SDS011;40181;51.560;13.000;2023-06-22T02:43:50;4.50;;;2.90;;
54269;SDS011;40181;51.560;13.000;2023-06-22T02:46:22;5.40;;;3.50;;
54269;SDS011;40181;51.560;13.000;2023-06-22T02:48:51;16.70;;;3.47;;
54269;SDS011;40181;51.560;13.000;2023-06-22T02:51:22;5.10;;;3.15;;
54269;SDS011;40181;51.560;13.000;2023-06-22T02:53:51;3.58;;;3.00;;
54269;SDS011;40181;51.560;13.000;2023-06-22T02:56:22;5.65;;;3.33;;
54269;SDS011;40181;51.560;13.000;2023-06-22T02:58:52;4.43;;;3.40;;
54269;SDS011;40181;51.560;13.000;2023-06-22T03:01:29;4.75;;;3.35;;
54269;SDS011;40181;51.560;13.000;2023-06-22T03:04:02;4.70;;;3.42;;
54269;SDS011;40181;51.560;13.000;2023-06-22T03:06:32;8.82;;;3.80;;
54269;SDS011;40181;51.560;13.000;2023-06-22T03:09:01;3.78;;;3.17;;
54269;SDS011;40181;51.560;13.000;2023-06-22T03:11:32;8.70;;;4.60;;
54269;SDS011;40181;51.560;13.000;2023-06-22T03:14:02;4.67;;;3.30;;
54269;SDS011;40181;51.560;13.000;2023-06-22T03:16:33;5.20;;;3.17;;
54269;SDS011;40181;51.560;13.000;2023-06-22T03:19:02;4.07;;;3.58;;
54269;SDS011;40181;51.560;13.000;2023-06-22T03:21:31;3.90;;;3.42;;
54269;SDS011;40181;51.560;13.000;2023-06-22T03:24:02;15.68;;;3.90;;
54269;SDS011;40181;51.560;13.000;2023-06-22T03:26:32;4.65;;;3.22;;
54269;SDS011;40181;51.560;13.000;2023-06-22T03:29:01;5.32;;;3.15;;
54269;SDS011;40181;51.560;13.000;2023-06-22T03:31:30;4.55;;;3.65;;
54269;SDS011;40181;51.560;13.000;2023-06-22T03:34:02;7.47;;;3.25;;
54269;SDS011;40181;51.560;13.000;2023-06-22T03:36:31;5.88;;;4.00;;
54269;SDS011;40181;51.560;13.000;2023-06-22T03:39:00;4.68;;;3.40;;
54269;SDS011;40181;51.560;13.000;2023-06-22T03:41:30;4.75;;;3.22;;
54269;SDS011;40181;51.560;13.000;2023-06-22T03:43:59;5.57;;;3.75;;
54269;SDS011;40181;51.560;13.000;2023-06-22T03:46:28;6.10;;;4.35;;
54269;SDS011;40181;51.560;13.000;2023-06-22T03:48:59;4.80;;;3.58;;
54269;SDS011;40181;51.560;13.000;2023-06-22T03:51:30;4.25;;;3.72;;
54269;SDS011;40181;51.560;13.000;2023-06-22T03:54:00;5.03;;;4.10;;
54269;SDS011;40181;51.560;13.000;2023-06-22T03:56:31;6.18;;;3.65;;
54269;SDS011;40181;51.560;13.000;2023-06-22T03:59:00;6.63;;;3.63;;
54269;SDS011;40181;51.560;13.000;2023-06-22T04:01:29;6.68;;;4.28;;
54269;SDS011;40181;51.560;13.000;2023-06-22T04:04:01;5.03;;;3.83;;
54269;SDS011;40181;51.560;13.000;2023-06-22T04:06:30;8.43;;;4.47;;
54269;SDS011;40181;51.560;13.000;2023-06-22T04:08:59;4.45;;;3.83;;
54269;SDS011;40181;51.560;13.000;2023-06-22T04:11:28;6.32;;;4.50;;
54269;SDS011;40181;51.560;13.000;2023-06-22T04:13:57;4.28;;;3.40;;
54269;SDS011;40181;51.560;13.000;2023-06-22T04:16:26;4.95;;;3.85;;
54269;SDS011;40181;51.560;13.000;2023-06-22T04:18:56;6.80;;;4.45;;
54269;SDS011;40181;51.560;13.000;2023-06-22T04:21:27;4.90;;;4.05;;
54269;SDS011;40181;51.560;13.000;2023-06-22T04:23:56;5.05;;;3.97;;
54269;SDS011;40181;51.560;13.000;2023-06-22T04:26:25;6.57;;;4.15;;
54269;SDS011;40181;51.560;13.000;2023-06-22T04:28:54;5.45;;;4.28;;
54269;SDS011;40181;51.560;13.000;2023-06-22T04:31:23;5.90;;;3.20;;
54269;SDS011;40181;51.560;13.000;2023-06-22T04:33:56;4.88;;;3.30;;
54269;SDS011;40181;51.560;13.000;2023-06-22T04:36:34;4.78;;;3.78;;
54269;SDS011;40181;51.560;13.000;2023-06-22T04:39:05;4.05;;;3.33;;
54269;SDS011;40181;51.560;13.000;2023-06-22T04:41:36;6.05;;;4.35;;
54269;SDS011;40181;51.560;13.000;2023-06-22T04:44:12;5.80;;;4.22;;
54269;SDS011;40181;51.560;13.000;2023-06-22T04:46:49;7.07;;;3.90;;
54269;SDS011;40181;51.560;13.000;2023-06-22T04:49:25;6.00;;;3.95;;
54269;SDS011;40181;51.560;13.000;2023-06-22T04:52:01;8.45;;;4.32;;
54269;SDS011;40181;51.560;13.000;2023-06-22T04:54:31;5.95;;;4.55;;
54269;SDS011;40181;51.560;13.000;2023-06-22T04:57:01;4.35;;;3.75;;
54269;SDS011;40181;51.560;13.000;2023-06-22T04:59:35;5.05;;;4.13;;
54269;SDS011;40181;51.560;13.000;2023-06-22T05:02:06;4.00;;;3.58;;
54269;SDS011;40181;51.560;13.000;2023-06-22T05:04:36;6.18;;;4.10;;
54269;SDS011;40181;51.560;13.000;2023-06-22T05:07:08;10.73;;;5.05;;
54269;SDS011;40181;51.560;13.000;2023-06-22T05:09:37;7.35;;;4.38;;
54269;SDS011;40181;51.560;13.000;2023-06-22T05:12:07;7.28;;;4.03;;
54269;SDS011;40181;51.560;13.000;2023-06-22T05:17:06;5.75;;;3.95;;
54269;SDS011;40181;51.560;13.000;2023-06-22T05:19:38;11.55;;;4.38;;
54269;SDS011;40181;51.560;13.000;2023-06-22T05:22:15;5.82;;;3.65;;
54269;SDS011;40181;51.560;13.000;2023-06-22T05:24:45;6.60;;;5.25;;
54269;SDS011;40181;51.560;13.000;2023-06-22T05:27:14;7.20;;;4.85;;
54269;SDS011;40181;51.560;13.000;2023-06-22T05:29:44;7.20;;;4.60;;
54269;SDS011;40181;51.560;13.000;2023-06-22T05:32:13;7.38;;;5.40;;
54269;SDS011;40181;51.560;13.000;2023-06-22T05:34:42;6.65;;;5.75;;
54269;SDS011;40181;51.560;13.000;2023-06-22T05:37:11;10.73;;;6.43;;
54269;SDS011;40181;51.560;13.000;2023-06-22T05:39:43;5.80;;;5.00;;
54269;SDS011;40181;51.560;13.000;2023-06-22T05:42:12;7.32;;;4.93;;
54269;SDS011;40181;51.560;13.000;2023-06-22T05:44:41;6.50;;;4.53;;
54269;SDS011;40181;51.560;13.000;2023-06-22T05:47:11;6.13;;;4.97;;
54269;SDS011;40181;51.560;13.000;2023-06-22T05:49:40;5.80;;;5.07;;
54269;SDS011;40181;51.560;13.000;2023-06-22T05:52:09;5.53;;;4.95;;
54269;SDS011;40181;51.560;13.000;2023-06-22T05:54:38;7.47;;;6.10;;
54269;SDS011;40181;51.560;13.000;2023-06-22T05:57:10;6.55;;;5.20;;
54269;SDS011;40181;51.560;13.000;2023-06-22T05:59:40;7.25;;;6.55;;
54269;SDS011;40181;51.560;13.000;2023-06-22T06:02:09;11.65;;;6.22;;
54269;SDS011;40181;51.560;13.000;2023-06-22T06:04:38;6.95;;;4.85;;
54269;SDS011;40181;51.560;13.000;2023-06-22T06:07:07;9.82;;;6.32;;
54269;SDS011;40181;51.560;13.000;2023-06-22T06:09:36;6.55;;;5.85;;
54269;SDS011;40181;51.560;13.000;2023-06-22T06:12:05;7.00;;;6.22;;
54269;SDS011;40181;51.560;13.000;2023-06-22T06:17:07;5.72;;;4.80;;
54269;SDS011;40181;51.560;13.000;2023-06-22T06:19:36;5.90;;;5.30;;
54269;SDS011;40181;51.560;13.000;2023-06-22T06:22:05;7.65;;;5.03;;
54269;SDS011;40181;51.560;13.000;2023-06-22T06:24:34;6.80;;;5.00;;
54269;SDS011;40181;51.560;13.000;2023-06-22T06:27:03;7.18;;;4.68;;
54269;SDS011;40181;51.560;13.000;2023-06-22T06:29:33;6.50;;;4.63;;
54269;SDS011;40181;51.560;13.000;2023-06-22T06:32:05;8.15;;;4.93;;
54269;SDS011;40181;51.560;13.000;2023-06-22T06:34:35;6.07;;;5.18;;
54269;SDS011;40181;51.560;13.000;2023-06-22T06:37:05;6.70;;;4.43;;
54269;SDS011;40181;51.560;13.000;2023-06-22T06:39:34;6.15;;;5.10;;
54269;SDS011;40181;51.560;13.000;2023-06-22T06:42:04;5.13;;;4.18;;
54269;SDS011;40181;51.560;13.000;2023-06-22T06:44:34;7.03;;;5.15;;
54269;SDS011;40181;51.560;13.000;2023-06-22T06:47:07;7.70;;;4.68;;
54269;SDS011;40181;51.560;13.000;2023-06-22T06:49:36;4.85;;;4.20;;
54269;SDS011;40181;51.560;13.000;2023-06-22T06:52:06;5.43;;;3.25;;
54269;SDS011;40181;51.560;13.000;2023-06-22T06:54:35;5.18;;;4.65;;
54269;SDS011;40181;51.560;13.000;2023-06-22T06:57:04;5.25;;;4.25;;
54269;SDS011;40181;51.560;13.000;2023-06-22T06:59:35;5.13;;;4.47;;
54269;SDS011;40181;51.560;13.000;2023-06-22T07:02:07;5.10;;;4.25;;
54269;SDS011;40181;51.560;13.000;2023-06-22T07:04:36;5.47;;;4.25;;
54269;SDS011;40181;51.560;13.000;2023-06-22T07:07:06;6.18;;;4.38;;
54269;SDS011;40181;51.560;13.000;2023-06-22T07:09:35;5.78;;;4.10;;
54269;SDS011;40181;51.560;13.000;2023-06-22T07:12:04;4.85;;;3.53;;
54269;SDS011;40181;51.560;13.000;2023-06-22T07:14:35;8.23;;;4.32;;
54269;SDS011;40181;51.560;13.000;2023-06-22T07:17:04;4.68;;;3.92;;
54269;SDS011;40181;51.560;13.000;2023-06-22T07:19:35;4.53;;;3.88;;
54269;SDS011;40181;51.560;13.000;2023-06-22T07:22:05;6.28;;;4.15;;
54269;SDS011;40181;51.560;13.000;2023-06-22T07:24:34;4.88;;;3.92;;
54269;SDS011;40181;51.560;13.000;2023-06-22T07:27:03;6.82;;;3.42;;
54269;SDS011;40181;51.560;13.000;2023-06-22T07:29:36;6.15;;;4.57;;
54269;SDS011;40181;51.560;13.000;2023-06-22T07:32:08;4.22;;;3.80;;
54269;SDS011;40181;51.560;13.000;2023-06-22T07:34:37;4.78;;;4.38;;
54269;SDS011;40181;51.560;13.000;2023-06-22T07:37:06;4.75;;;4.25;;
54269;SDS011;40181;51.560;13.000;2023-06-22T07:39:35;5.93;;;3.83;;
54269;SDS011;40181;51.560;13.000;2023-06-22T07:42:05;5.68;;;4.07;;
54269;SDS011;40181;51.560;13.000;2023-06-22T07:44:34;5.30;;;4.03;;
54269;SDS011;40181;51.560;13.000;2023-06-22T07:47:03;5.93;;;4.78;;
54269;SDS011;40181;51.560;13.000;2023-06-22T07:49:35;5.53;;;4.97;;
54269;SDS011;40181;51.560;13.000;2023-06-22T07:52:05;7.28;;;5.35;;
54269;SDS011;40181;51.560;13.000;2023-06-22T07:54:36;5.28;;;4.32;;
54269;SDS011;40181;51.560;13.000;2023-06-22T07:57:05;6.15;;;4.38;;
54269;SDS011;40181;51.560;13.000;2023-06-22T07:59:34;5.57;;;3.93;;
54269;SDS011;40181;51.560;13.000;2023-06-22T08:02:04;17.63;;;5.35;;
54269;SDS011;40181;51.560;13.000;2023-06-22T08:04:37;5.95;;;4.68;;
54269;SDS011;40181;51.560;13.000;2023-06-22T08:07:06;5.20;;;4.63;;
54269;SDS011;40181;51.560;13.000;2023-06-22T08:09:35;5.75;;;5.00;;
54269;SDS011;40181;51.560;13.000;2023-06-22T08:12:05;4.57;;;4.07;;
54269;SDS011;40181;51.560;13.000;2023-06-22T08:14:38;4.90;;;4.25;;
54269;SDS011;40181;51.560;13.000;2023-06-22T08:17:07;4.70;;;4.20;;
54269;SDS011;40181;51.560;13.000;2023-06-22T08:19:41;4.72;;;4.07;;
54269;SDS011;40181;51.560;13.000;2023-06-22T08:22:10;4.75;;;3.78;;
54269;SDS011;40181;51.560;13.000;2023-06-22T08:24:39;5.97;;;4.22;;
54269;SDS011;40181;51.560;13.000;2023-06-22T08:27:09;6.05;;;4.63;;
54269;SDS011;40181;51.560;13.000;2023-06-22T08:29:39;5.10;;;4.53;;
54269;SDS011;40181;51.560;13.000;2023-06-22T08:32:10;5.07;;;3.88;;
54269;SDS011;40181;51.560;13.000;2023-06-22T08:34:42;5.75;;;4.13;;
54269;SDS011;40181;51.560;13.000;2023-06-22T08:37:12;4.28;;;3.88;;
54269;SDS011;40181;51.560;13.000;2023-06-22T08:39:41;5.95;;;4.75;;
54269;SDS011;40181;51.560;13.000;2023-06-22T08:42:12;4.15;;;3.75;;
54269;SDS011;40181;51.560;13.000;2023-06-22T08:44:41;4.22;;;3.80;;
54269;SDS011;40181;51.560;13.000;2023-06-22T08:47:10;5.32;;;4.18;;
54269;SDS011;40181;51.560;13.000;2023-06-22T08:49:39;5.68;;;3.63;;
54269;SDS011;40181;51.560;13.000;2023-06-22T08:52:10;5.15;;;4.05;;
54269;SDS011;40181;51.560;13.000;2023-06-22T08:54:39;5.53;;;4.55;;
54269;SDS011;40181;51.560;13.000;2023-06-22T08:57:09;4.93;;;4.32;;
54269;SDS011;40181;51.560;13.000;2023-06-22T08:59:38;4.90;;;4.18;;
54269;SDS011;40181;51.560;13.000;2023-06-22T09:02:07;4.93;;;3.80;;
54269;SDS011;40181;51.560;13.000;2023-06-22T09:04:36;7.78;;;3.92;;
54269;SDS011;40181;51.560;13.000;2023-06-22T09:07:09;5.80;;;3.60;;
54269;SDS011;40181;51.560;13.000;2023-06-22T09:09:38;5.82;;;3.70;;
54269;SDS011;40181;51.560;13.000;2023-06-22T09:12:08;5.95;;;3.88;;
54269;SDS011;40181;51.560;13.000;2023-06-22T09:14:38;6.07;;;4.10;;
54269;SDS011;40181;51.560;13.000;2023-06-22T09:17:07;4.63;;;3.92;;
54269;SDS011;40181;51.560;13.000;2023-06-22T09:19:36;5.72;;;3.80;;
54269;SDS011;40181;51.560;13.000;2023-06-22T09:22:05;7.50;;;3.70;;
54269;SDS011;40181;51.560;13.000;2023-06-22T09:24:37;4.50;;;3.40;;
54269;SDS011;40181;51.560;13.000;2023-06-22T09:27:06;5.70;;;4.55;;
54269;SDS011;40181;51.560;13.000;2023-06-22T09:29:35;10.48;;;4.38;;
54269;SDS011;40181;51.560;13.000;2023-06-22T09:32:05;5.05;;;3.53;;
54269;SDS011;40181;51.560;13.000;2023-06-22T09:34:35;4.68;;;3.13;;
54269;SDS011;40181;51.560;13.000;2023-06-22T09:37:04;6.38;;;3.33;;
54269;SDS011;40181;51.560;13.000;2023-06-22T09:39:36;4.25;;;3.42;;
54269;SDS011;40181;51.560;13.000;2023-06-22T09:42:06;6.63;;;4.50;;
54269;SDS011;40181;51.560;13.000;2023-06-22T09:44:36;4.78;;;3.88;;
54269;SDS011;40181;51.560;13.000;2023-06-22T09:47:06;5.38;;;3.58;;
54269;SDS011;40181;51.560;13.000;2023-06-22T09:49:35;6.93;;;3.35;;
54269;SDS011;40181;51.560;13.000;2023-06-22T09:52:05;5.50;;;2.47;;
54269;SDS011;40181;51.560;13.000;2023-06-22T09:54:38;5.30;;;3.53;;
54269;SDS011;40181;51.560;13.000;2023-06-22T09:57:07;3.88;;;3.47;;
54269;SDS011;40181;51.560;13.000;2023-06-22T09:59:36;5.05;;;4.00;;
54269;SDS011;40181;51.560;13.000;2023-06-22T10:02:05;5.60;;;3.83;;
54269;SDS011;40181;51.560;13.000;2023-06-22T10:04:35;4.80;;;3.53;;
54269;SDS011;40181;51.560;13.000;2023-06-22T10:09:36;6.82;;;4.13;;
54269;SDS011;40181;51.560;13.000;2023-06-22T10:12:06;5.57;;;3.80;;
54269;SDS011;40181;51.560;13.000;2023-06-22T10:14:36;5.13;;;3.40;;
54269;SDS011;40181;51.560;13.000;2023-06-22T10:17:05;4.43;;;3.22;;
54269;SDS011;40181;51.560;13.000;2023-06-22T10:19:34;4.03;;;3.00;;
54269;SDS011;40181;51.560;13.000;2023-06-22T10:22:06;5.13;;;3.58;;
54269;SDS011;40181;51.560;13.000;2023-06-22T10:24:38;6.90;;;3.63;;
54269;SDS011;40181;51.560;13.000;2023-06-22T10:27:09;4.35;;;3.47;;
54269;SDS011;40181;51.560;13.000;2023-06-22T10:29:38;5.85;;;3.58;;
54269;SDS011;40181;51.560;13.000;2023-06-22T10:32:08;3.40;;;3.07;;
54269;SDS011;40181;51.560;13.000;2023-06-22T10:34:37;7.60;;;3.03;;
54269;SDS011;40181;51.560;13.000;2023-06-22T10:37:06;5.00;;;3.20;;
54269;SDS011;40181;51.560;13.000;2023-06-22T10:39:38;5.20;;;3.80;;
54269;SDS011;40181;51.560;13.000;2023-06-22T10:42:07;4.85;;;3.28;;
54269;SDS011;40181;51.560;13.000;2023-06-22T10:44:36;7.27;;;4.80;;
54269;SDS011;40181;51.560;13.000;2023-06-22T10:47:09;7.13;;;4.82;;
54269;SDS011;40181;51.560;13.000;2023-06-22T10:49:38;5.25;;;3.80;;
54269;SDS011;40181;51.560;13.000;2023-06-22T10:52:08;4.90;;;2.88;;
54269;SDS011;40181;51.560;13.000;2023-06-22T10:54:41;4.30;;;3.08;;
54269;SDS011;40181;51.560;13.000;2023-06-22T10:57:10;5.55;;;3.42;;
54269;SDS011;40181;51.560;13.000;2023-06-22T10:59:39;4.93;;;3.67;;
54269;SDS011;40181;51.560;13.000;2023-06-22T11:02:08;7.90;;;2.78;;
54269;SDS011;40181;51.560;13.000;2023-06-22T11:04:38;4.37;;;3.50;;
54269;SDS011;40181;51.560;13.000;2023-06-22T11:07:07;6.10;;;3.33;;
54269;SDS011;40181;51.560;13.000;2023-06-22T11:09:41;3.83;;;3.22;;
54269;SDS011;40181;51.560;13.000;2023-06-22T11:12:11;4.40;;;2.95;;
54269;SDS011;40181;51.560;13.000;2023-06-22T11:14:40;5.53;;;4.15;;
54269;SDS011;40181;51.560;13.000;2023-06-22T11:17:09;5.05;;;3.45;;
54269;SDS011;40181;51.560;13.000;2023-06-22T11:19:38;6.53;;;3.88;;
54269;SDS011;40181;51.560;13.000;2023-06-22T11:22:07;5.85;;;2.88;;
54269;SDS011;40181;51.560;13.000;2023-06-22T11:24:36;4.25;;;3.83;;
54269;SDS011;40181;51.560;13.000;2023-06-22T11:27:08;4.22;;;3.45;;
54269;SDS011;40181;51.560;13.000;2023-06-22T11:29:38;5.00;;;3.53;;
54269;SDS011;40181;51.560;13.000;2023-06-22T11:32:07;4.55;;;3.33;;
54269;SDS011;40181;51.560;13.000;2023-06-22T11:34:36;3.45;;;3.00;;
54269;SDS011;40181;51.560;13.000;2023-06-22T11:37:05;4.13;;;3.25;;
54269;SDS011;40181;51.560;13.000;2023-06-22T11:39:34;4.28;;;2.85;;
54269;SDS011;40181;51.560;13.000;2023-06-22T11:42:04;3.88;;;3.13;;
54269;SDS011;40181;51.560;13.000;2023-06-22T11:47:05;4.72;;;3.38;;
54269;SDS011;40181;51.560;13.000;2023-06-22T11:49:34;6.17;;;4.57;;
54269;SDS011;40181;51.560;13.000;2023-06-22T11:52:04;4.03;;;3.50;;
54269;SDS011;40181;51.560;13.000;2023-06-22T11:54:33;4.05;;;3.13;;
54269;SDS011;40181;51.560;13.000;2023-06-22T11:57:03;4.47;;;3.63;;
54269;SDS011;40181;51.560;13.000;2023-06-22T11:59:33;4.07;;;3.15;;
54269;SDS011;40181;51.560;13.000;2023-06-22T12:02:05;6.13;;;2.90;;
54269;SDS011;40181;51.560;13.000;2023-06-22T12:04:34;3.83;;;3.43;;
54269;SDS011;40181;51.560;13.000;2023-06-22T12:07:03;7.90;;;3.30;;
54269;SDS011;40181;51.560;13.000;2023-06-22T12:09:33;4.35;;;2.97;;
54269;SDS011;40181;51.560;13.000;2023-06-22T12:12:02;5.28;;;3.78;;
54269;SDS011;40181;51.560;13.000;2023-06-22T12:17:03;3.10;;;2.53;;
54269;SDS011;40181;51.560;13.000;2023-06-22T12:19:33;6.93;;;3.33;;
54269;SDS011;40181;51.560;13.000;2023-06-22T12:22:02;3.10;;;2.80;;
54269;SDS011;40181;51.560;13.000;2023-06-22T12:24:31;6.45;;;4.38;;
54269;SDS011;40181;51.560;13.000;2023-06-22T12:27:00;3.47;;;2.63;;
54269;SDS011;40181;51.560;13.000;2023-06-22T12:29:30;4.78;;;3.60;;
54269;SDS011;40181;51.560;13.000;2023-06-22T12:32:00;6.22;;;3.70;;
54269;SDS011;40181;51.560;13.000;2023-06-22T12:34:32;4.75;;;3.60;;
54269;SDS011;40181;51.560;13.000;2023-06-22T12:37:02;3.85;;;3.03;;
54269;SDS011;40181;51.560;13.000;2023-06-22T12:39:31;3.40;;;2.67;;
54269;SDS011;40181;51.560;13.000;2023-06-22T12:42:00;4.15;;;3.55;;
54269;SDS011;40181;51.560;13.000;2023-06-22T12:44:30;4.18;;;3.50;;
54269;SDS011;40181;51.560;13.000;2023-06-22T12:46:59;5.00;;;3.53;;
54269;SDS011;40181;51.560;13.000;2023-06-22T12:49:31;3.15;;;2.85;;
54269;SDS011;40181;51.560;13.000;2023-06-22T12:52:00;5.03;;;3.75;;
54269;SDS011;40181;51.560;13.000;2023-06-22T12:54:29;4.38;;;3.25;;
54269;SDS011;40181;51.560;13.000;2023-06-22T12:56:58;4.43;;;3.78;;
54269;SDS011;40181;51.560;13.000;2023-06-22T12:59:27;4.20;;;3.47;;
54269;SDS011;40181;51.560;13.000;2023-06-22T13:01:56;3.72;;;2.83;;
54269;SDS011;40181;51.560;13.000;2023-06-22T13:04:25;3.85;;;3.08;;
54269;SDS011;40181;51.560;13.000;2023-06-22T13:06:57;3.67;;;3.03;;
54269;SDS011;40181;51.560;13.000;2023-06-22T13:09:26;5.63;;;3.33;;
54269;SDS011;40181;51.560;13.000;2023-06-22T13:11:56;4.28;;;3.45;;
54269;SDS011;40181;51.560;13.000;2023-06-22T13:14:25;8.38;;;3.95;;
54269;SDS011;40181;51.560;13.000;2023-06-22T13:16:54;3.53;;;3.00;;
54269;SDS011;40181;51.560;13.000;2023-06-22T13:19:23;4.13;;;3.47;;
54269;SDS011;40181;51.560;13.000;2023-06-22T13:21:59;5.30;;;3.83;;
54269;SDS011;40181;51.560;13.000;2023-06-22T13:24:29;4.82;;;3.40;;
54269;SDS011;40181;51.560;13.000;2023-06-22T13:26:58;3.85;;;3.08;;
54269;SDS011;40181;51.560;13.000;2023-06-22T13:29:27;5.70;;;3.45;;
54269;SDS011;40181;51.560;13.000;2023-06-22T13:31:56;3.85;;;3.25;;
54269;SDS011;40181;51.560;13.000;2023-06-22T13:34:25;5.15;;;3.15;;
54269;SDS011;40181;51.560;13.000;2023-06-22T13:36:54;5.30;;;4.07;;
54269;SDS011;40181;51.560;13.000;2023-06-22T13:39:25;4.25;;;2.60;;
54269;SDS011;40181;51.560;13.000;2023-06-22T13:41:57;8.63;;;2.97;;
54269;SDS011;40181;51.560;13.000;2023-06-22T13:46:59;5.88;;;4.10;;
54269;SDS011;40181;51.560;13.000;2023-06-22T13:49:29;3.47;;;2.88;;
54269;SDS011;40181;51.560;13.000;2023-06-22T13:51:58;5.50;;;3.33;;
54269;SDS011;40181;51.560;13.000;2023-06-22T13:54:31;4.35;;;3.47;;
54269;SDS011;40181;51.560;13.000;2023-06-22T13:57:00;4.65;;;3.45;;
54269;SDS011;40181;51.560;13.000;2023-06-22T13:59:29;6.43;;;3.65;;
54269;SDS011;40181;51.560;13.000;2023-06-22T14:01:58;3.22;;;2.63;;
54269;SDS011;40181;51.560;13.000;2023-06-22T14:04:27;8.43;;;3.67;;
54269;SDS011;40181;51.560;13.000;2023-06-22T14:06:56;6.57;;;3.90;;
54269;SDS011;40181;51.560;13.000;2023-06-22T14:09:25;3.88;;;2.83;;
54269;SDS011;40181;51.560;13.000;2023-06-22T14:11:57;4.55;;;3.40;;
54269;SDS011;40181;51.560;13.000;2023-06-22T14:14:27;3.97;;;3.42;;
54269;SDS011;40181;51.560;13.000;2023-06-22T14:16:56;3.58;;;3.15;;
54269;SDS011;40181;51.560;13.000;2023-06-22T14:19:28;4.93;;;3.05;;
54269;SDS011;40181;51.560;13.000;2023-06-22T14:21:57;3.85;;;2.90;;
54269;SDS011;40181;51.560;13.000;2023-06-22T14:24:26;4.75;;;3.17;;
54269;SDS011;40181;51.560;13.000;2023-06-22T14:26:58;2.95;;;2.63;;
54269;SDS011;40181;51.560;13.000;2023-06-22T14:29:28;4.45;;;3.63;;
54269;SDS011;40181;51.560;13.000;2023-06-22T14:31:57;7.75;;;3.08;;
54269;SDS011;40181;51.560;13.000;2023-06-22T14:34:26;3.80;;;3.15;;
54269;SDS011;40181;51.560;13.000;2023-06-22T14:36:55;3.35;;;2.63;;
54269;SDS011;40181;51.560;13.000;2023-06-22T14:39:25;4.80;;;2.67;;
54269;SDS011;40181;51.560;13.000;2023-06-22T14:41:54;4.28;;;3.05;;
54269;SDS011;40181;51.560;13.000;2023-06-22T14:44:25;4.03;;;3.30;;
54269;SDS011;40181;51.560;13.000;2023-06-22T14:46:55;4.32;;;3.65;;
54269;SDS011;40181;51.560;13.000;2023-06-22T14:49:24;7.13;;;3.72;;
54269;SDS011;40181;51.560;13.000;2023-06-22T14:51:55;4.50;;;3.17;;
54269;SDS011;40181;51.560;13.000;2023-06-22T14:54:26;4.43;;;3.25;;
54269;SDS011;40181;51.560;13.000;2023-06-22T14:56:55;7.15;;;4.60;;
54269;SDS011;40181;51.560;13.000;2023-06-22T14:59:26;4.18;;;2.80;;
54269;SDS011;40181;51.560;13.000;2023-06-22T15:01:55;4.43;;;2.78;;
54269;SDS011;40181;51.560;13.000;2023-06-22T15:04:24;4.22;;;3.45;;
54269;SDS011;40181;51.560;13.000;2023-06-22T15:06:56;5.28;;;3.05;;
54269;SDS011;40181;51.560;13.000;2023-06-22T15:09:25;3.10;;;2.80;;